Temp: 13.7°C   Baro: 1017.6mb
  Wind: 4.9mph   Dir: SW (227°)
  Rain: 0.0mm (0.0mm/hr)
  Solar: 0W/m2  Hum: 86%

Historic data

Bath Spa Weather Station Historical Data
Daily Summary for December 30, 2019 Units:  Metric    English   Both
Daily Weekly Monthly Yearly Custom
  High: Low: Average:
Temperature: 10.5 °C 3.2 °C 6.6 °C
Dew Point: 8.3 °C 2.3 °C 5.5 °C
Humidity: 96% 85.6% 93%
Wind Speed: 8km/h 0km/h 2.3km/h
Wind Gust: 11.3km/h - -
Wind- - SSW
Pressure: 1030.4 hPa 1027.7 hPa -
Precipitation: 0 mm    
Historical Graphs
 
 
Tabular Data for December 30, 2019
Time Temperature Dew Point Pressure Wind Wind Speed Wind Gust Humidity Rainfall Rate (Hourly) solar
00:09 7.2 °C 6 °C 1030.4 hPa SSE 1.6 km/h 4.8 km/h 92% 0 mm 0 W/m2
00:14 7.1 °C 5.9 °C 1030.4 hPa SSE 2.1 km/h 4.8 km/h 92% 0 mm 0 W/m2
00:19 7.1 °C 5.9 °C 1030.4 hPa SSE 2.7 km/h 4.8 km/h 92% 0 mm 0 W/m2
00:24 7.2 °C 5.9 °C 1030.4 hPa South 3.7 km/h 6.4 km/h 92% 0 mm 0 W/m2
00:29 7.2 °C 6 °C 1030 hPa SSE 2.7 km/h 8 km/h 92% 0 mm 0 W/m2
00:34 7.1 °C 5.9 °C 1030 hPa SSE 2.7 km/h 8 km/h 92% 0 mm 0 W/m2
00:39 7.1 °C 5.9 °C 1030 hPa SSE 3.5 km/h 4.8 km/h 92% 0 mm 0 W/m2
00:44 7 °C 5.8 °C 1030 hPa SSE 1.9 km/h 4.8 km/h 92% 0 mm 0 W/m2
00:49 6.9 °C 5.7 °C 1029.7 hPa ESE 3.5 km/h 8 km/h 92% 0 mm 0 W/m2
00:54 6.8 °C 5.5 °C 1029.7 hPa SE 2.1 km/h 9.7 km/h 91.6% 0 mm 0 W/m2
00:59 6.8 °C 5.4 °C 1029.7 hPa SSE 1.9 km/h 9.7 km/h 91.3% 0 mm 0 W/m2
01:04 6.7 °C 5.4 °C 1029.7 hPa SE 2.1 km/h 4.8 km/h 91.6% 0 mm 0 W/m2
01:09 6.7 °C 5.4 °C 1029.7 hPa ESE 3.2 km/h 8 km/h 92% 0 mm 0 W/m2
01:14 6.6 °C 5.4 °C 1029.7 hPa ESE 3.2 km/h 4.8 km/h 92% 0 mm 0 W/m2
01:19 6.6 °C 5.4 °C 1029.7 hPa SSE 3.5 km/h 8 km/h 92% 0 mm 0 W/m2
01:24 6.4 °C 5.2 °C 1029.7 hPa East 2.6 km/h 4.8 km/h 92% 0 mm 0 W/m2
01:29 6.2 °C 5.1 °C 1029.7 hPa East 2.4 km/h 3.2 km/h 92% 0 mm 0 W/m2
01:34 6.2 °C 5 °C 1029.7 hPa ESE 3.4 km/h 6.4 km/h 92% 0 mm 0 W/m2
01:39 6.2 °C 5 °C 1029.7 hPa East 1.4 km/h 4.8 km/h 92% 0 mm 0 W/m2
01:44 6.2 °C 4.9 °C 1029.7 hPa East 1.3 km/h 3.2 km/h 92% 0 mm 0 W/m2
01:49 6.1 °C 4.9 °C 1029.7 hPa East 1.3 km/h 3.2 km/h 92% 0 mm 0 W/m2
01:54 6.1 °C 4.8 °C 1029.3 hPa East 0.8 km/h 3.2 km/h 92% 0 mm 0 W/m2
01:59 5.9 °C 4.8 °C 1029.7 hPa East 1.4 km/h 3.2 km/h 92% 0 mm 0 W/m2
02:04 5.9 °C 4.7 °C 1029.7 hPa ENE 3.5 km/h 4.8 km/h 92% 0 mm 0 W/m2
02:09 5.8 °C 4.6 °C 1029.7 hPa ENE 0.8 km/h 4.8 km/h 92% 0 mm 0 W/m2
02:14 5.7 °C 4.6 °C 1029.7 hPa ENE 1.9 km/h 3.2 km/h 92% 0 mm 0 W/m2
02:19 5.7 °C 4.5 °C 1029.3 hPa East 3.5 km/h 6.4 km/h 92% 0 mm 0 W/m2
02:24 5.7 °C 4.4 °C 1029.3 hPa East 1.8 km/h 4.8 km/h 92% 0 mm 0 W/m2
02:29 5.5 °C 4.3 °C 1029.7 hPa ENE 3.5 km/h 4.8 km/h 92.2% 0 mm 0 W/m2
02:34 5.6 °C 4.6 °C 1029.3 hPa East 2.6 km/h 4.8 km/h 93% 0 mm 0 W/m2
02:39 5.7 °C 4.7 °C 1029.3 hPa ESE 1.6 km/h 4.8 km/h 93% 0 mm 0 W/m2
02:44 5.7 °C 4.7 °C 1029.3 hPa East 2.4 km/h 4.8 km/h 93% 0 mm 0 W/m2
02:49 5.6 °C 4.6 °C 1029.3 hPa ENE 2.6 km/h 4.8 km/h 93% 0 mm 0 W/m2
02:54 5.4 °C 4.3 °C 1029.7 hPa ENE 2.4 km/h 4.8 km/h 93% 0 mm 0 W/m2
02:59 5.2 °C 4.2 °C 1029.3 hPa ENE 0.6 km/h 1.6 km/h 93% 0 mm 0 W/m2
03:04 4.8 °C 3.8 °C 1029.3 hPa ENE 1.3 km/h 3.2 km/h 93% 0 mm 0 W/m2
03:09 4.6 °C 3.6 °C 1029.3 hPa ENE 0.8 km/h 3.2 km/h 93% 0 mm 0 W/m2
03:14 4.6 °C 3.6 °C 1029.3 hPa ENE 0.3 km/h 3.2 km/h 93% 0 mm 0 W/m2
03:19 4.4 °C 3.4 °C 1029.3 hPa ENE 0.8 km/h 3.2 km/h 93% 0 mm 0 W/m2
03:24 4.3 °C 3.3 °C 1029.3 hPa ENE 0.3 km/h 1.6 km/h 93% 0 mm 0 W/m2
03:29 4.2 °C 3.2 °C 1029.3 hPa ENE 1.3 km/h 3.2 km/h 93% 0 mm 0 W/m2
03:34 4.1 °C 3.1 °C 1029.3 hPa Calm   1.6 km/h 93% 0 mm 0 W/m2
03:39 3.9 °C 2.9 °C 1029.3 hPa ENE 1.1 km/h 3.2 km/h 93% 0 mm 0 W/m2
03:44 3.9 °C 2.9 °C 1029.3 hPa ENE 0.3 km/h 1.6 km/h 93% 0 mm 0 W/m2
03:49 3.9 °C 2.9 °C 1029.3 hPa ENE 0.3 km/h 1.6 km/h 93% 0 mm 0 W/m2
03:54 3.9 °C 2.9 °C 1029.3 hPa ENE 0.3 km/h 1.6 km/h 93% 0 mm 0 W/m2
03:59 3.8 °C 2.8 °C 1029.3 hPa Calm   1.6 km/h 93% 0 mm 0 W/m2
04:04 3.8 °C 2.8 °C 1029.3 hPa ENE 0.3 km/h 3.2 km/h 93% 0 mm 0 W/m2
04:09 3.6 °C 2.6 °C 1029.3 hPa ENE 0.3 km/h 3.2 km/h 93% 0 mm 0 W/m2
04:14 3.6 °C 2.6 °C 1029.3 hPa Calm     93% 0 mm 0 W/m2
04:19 3.5 °C 2.6 °C 1029.3 hPa ENE 1.3 km/h 3.2 km/h 94% 0 mm 0 W/m2
04:24 3.4 °C 2.5 °C 1029.3 hPa ENE 1.1 km/h 1.6 km/h 93.8% 0 mm 0 W/m2
04:29 3.3 °C 2.3 °C 1029.3 hPa Calm   1.6 km/h 93% 0 mm 0 W/m2
04:34 3.3 °C 2.3 °C 1029.3 hPa ENE 0.8 km/h 1.6 km/h 93.2% 0 mm 0 W/m2
04:39 3.3 °C 2.4 °C 1029.3 hPa Calm   1.6 km/h 94% 0 mm 0 W/m2
04:44 3.3 °C 2.4 °C 1029.3 hPa ENE 0.3 km/h 1.6 km/h 94% 0 mm 0 W/m2
04:49 3.3 °C 2.4 °C 1029.3 hPa Calm   1.6 km/h 94% 0 mm 0 W/m2
04:53 3.2 °C 2.3 °C 1029.3 hPa ENE 1.9 km/h 3.2 km/h 94% 0 mm 0 W/m2
04:59 3.2 °C 2.3 °C 1029.3 hPa Calm   3.2 km/h 94% 0 mm 0 W/m2
05:04 3.2 °C 2.3 °C 1029.3 hPa Calm   1.6 km/h 94% 0 mm 0 W/m2
05:09 3.3 °C 2.3 °C 1029.3 hPa ENE 0.3 km/h 3.2 km/h 94% 0 mm 0 W/m2
05:14 3.3 °C 2.4 °C 1029.3 hPa Calm   3.2 km/h 94% 0 mm 0 W/m2
05:19 3.3 °C 2.4 °C 1029.3 hPa Calm   1.6 km/h 94% 0 mm 0 W/m2
05:24 3.3 °C 2.4 °C 1029.3 hPa ENE 0.3 km/h 1.6 km/h 94% 0 mm 0 W/m2
05:29 3.4 °C 2.5 °C 1029.3 hPa ENE 2.1 km/h 3.2 km/h 94% 0 mm 0 W/m2
05:34 3.7 °C 2.8 °C 1029 hPa ENE 1.4 km/h 3.2 km/h 94% 0 mm 0 W/m2
05:39 3.8 °C 2.9 °C 1029 hPa East 1.9 km/h 4.8 km/h 94% 0 mm 0 W/m2
05:44 3.8 °C 2.9 °C 1029 hPa East 0.6 km/h 3.2 km/h 94% 0 mm 0 W/m2
05:49 3.7 °C 2.8 °C 1029 hPa Calm   1.6 km/h 94% 0 mm 0 W/m2
05:54 3.5 °C 2.6 °C 1029 hPa East 0.6 km/h 1.6 km/h 94% 0 mm 0 W/m2
05:59 3.4 °C 2.5 °C 1029 hPa East 1.3 km/h 3.2 km/h 94% 0 mm 0 W/m2
06:04 3.5 °C 2.6 °C 1029 hPa East 1.8 km/h 4.8 km/h 94% 0 mm 0 W/m2
06:09 3.9 °C 3 °C 1029 hPa ENE 3.2 km/h 4.8 km/h 94% 0 mm 0 W/m2
06:14 4.4 °C 3.6 °C 1029 hPa ENE 2.7 km/h 4.8 km/h 94.3% 0 mm 0 W/m2
06:19 4.8 °C 4 °C 1029 hPa ENE 2.6 km/h 4.8 km/h 94.4% 0 mm 0 W/m2
06:24 5.1 °C 4.4 °C 1029 hPa ENE 2.6 km/h 3.2 km/h 95% 0 mm 0 W/m2
06:29 4.9 °C 4.2 °C 1029 hPa East 0.6 km/h 3.2 km/h 94.8% 0 mm 0 W/m2
06:34 4.6 °C 3.8 °C 1029 hPa ESE 0.8 km/h 3.2 km/h 95% 0 mm 0 W/m2
06:39 4.4 °C 3.6 °C 1029 hPa ESE 1.1 km/h 3.2 km/h 94.6% 0 mm 0 W/m2
06:44 4.1 °C 3.3 °C 1029 hPa Calm   1.6 km/h 94.4% 0 mm 0 W/m2
06:49 3.8 °C 3.1 °C 1029 hPa ESE 1.4 km/h 3.2 km/h 95% 0 mm 0 W/m2
06:54 3.8 °C 3.1 °C 1029 hPa ESE 1.1 km/h 3.2 km/h 94.8% 0 mm 0 W/m2
06:59 3.7 °C 2.8 °C 1029 hPa ESE 0.8 km/h 1.6 km/h 94.2% 0 mm 0 W/m2
07:04 3.7 °C 2.8 °C 1029 hPa ESE 0.6 km/h 1.6 km/h 94% 0 mm 0 W/m2
07:09 3.7 °C 2.8 °C 1029 hPa Calm   1.6 km/h 94% 0 mm 0 W/m2
07:14 3.7 °C 2.9 °C 1029 hPa Calm     94.4% 0 mm 0 W/m2
07:19 3.8 °C 3.1 °C 1029 hPa Calm     95% 0 mm 0 W/m2
07:24 3.9 °C 3.3 °C 1029 hPa ESE 0.3 km/h 1.6 km/h 95% 0 mm 0 W/m2
07:29 4.1 °C 3.4 °C 1029 hPa ESE 0.3 km/h 1.6 km/h 95% 0 mm 0 W/m2
07:34 4.1 °C 3.3 °C 1029 hPa Calm   1.6 km/h 95% 0 mm 0 W/m2
07:39 3.9 °C 3.2 °C 1029.3 hPa ESE 0.3 km/h 1.6 km/h 95% 0 mm 0 W/m2
07:44 3.9 °C 3.2 °C 1029.3 hPa ESE 0.3 km/h 1.6 km/h 95% 0 mm 0 W/m2
07:49 3.8 °C 3.1 °C 1029 hPa ESE 0.6 km/h 1.6 km/h 95% 0 mm 0 W/m2
07:54 3.8 °C 3.1 °C 1029 hPa ESE 1.4 km/h 3.2 km/h 95% 0 mm 0 W/m2
07:59 3.8 °C 3.2 °C 1029 hPa SE 0.8 km/h 3.2 km/h 95% 0 mm 0 W/m2
08:04 4.1 °C 3.4 °C 1029 hPa SE 0.6 km/h 3.2 km/h 95% 0 mm 0 W/m2
08:09 4.4 °C 3.7 °C 1029 hPa SE 1.1 km/h 3.2 km/h 95% 0 mm 0 W/m2
08:14 4.9 °C 4.2 °C 1029 hPa SE 0.3 km/h 3.2 km/h 95% 0 mm 0 W/m2
08:19 5.2 °C 4.5 °C 1029 hPa Calm   1.6 km/h 95% 0 mm 0 W/m2
08:24 5.4 °C 4.7 °C 1029 hPa SE 1.4 km/h 3.2 km/h 95% 0 mm 5 W/m2
08:29 5.4 °C 4.8 °C 1029 hPa SE 3.2 km/h 3.2 km/h 95% 0 mm 9 W/m2
08:34 5.7 °C 5 °C 1029 hPa SE 2.1 km/h 3.2 km/h 95% 0 mm 12 W/m2
08:39 5.8 °C 5.1 °C 1029.3 hPa SE 0.6 km/h 1.6 km/h 95% 0 mm 12 W/m2
08:44 5.8 °C 5.1 °C 1029.3 hPa Calm   1.6 km/h 95% 0 mm 16 W/m2
08:49 5.7 °C 5 °C 1029.3 hPa SE 1.3 km/h 3.2 km/h 95% 0 mm 21 W/m2
08:54 5.6 °C 4.8 °C 1029.3 hPa SE 0.8 km/h 3.2 km/h 95% 0 mm 23 W/m2
08:59 5.3 °C 4.7 °C 1029.3 hPa SE 0.3 km/h 3.2 km/h 95% 0 mm 16 W/m2
09:04 5.3 °C 4.6 °C 1029.3 hPa SE 0.3 km/h 1.6 km/h 95% 0 mm 18 W/m2
09:09 5.2 °C 4.5 °C 1029.3 hPa SE 2.1 km/h 3.2 km/h 95% 0 mm 19 W/m2
09:14 5.2 °C 4.5 °C 1029.3 hPa SE 0.6 km/h 1.6 km/h 95% 0 mm 21 W/m2
09:19 5.3 °C 4.6 °C 1029.3 hPa Calm   1.6 km/h 95% 0 mm 25 W/m2
09:24 5.3 °C 4.6 °C 1029.7 hPa SSE 0.8 km/h 3.2 km/h 95% 0 mm 30 W/m2
09:29 5.3 °C 4.7 °C 1029.7 hPa SSE 0.3 km/h 1.6 km/h 95% 0 mm 40 W/m2
09:34 5.6 °C 4.8 °C 1029.7 hPa SSE 0.3 km/h 1.6 km/h 95% 0 mm 54 W/m2
09:39 5.7 °C 5 °C 1029.7 hPa SSE 0.6 km/h 1.6 km/h 95% 0 mm 54 W/m2
09:44 5.8 °C 5.2 °C 1029.7 hPa Calm   1.6 km/h 95% 0 mm 47 W/m2
09:49 5.9 °C 5.3 °C 1029.7 hPa SSE 0.3 km/h 1.6 km/h 95.4% 0 mm 56 W/m2
09:54 6.1 °C 5.4 °C 1029.7 hPa SSE 0.8 km/h 3.2 km/h 95% 0 mm 56 W/m2
09:59 6.1 °C 5.4 °C 1029.7 hPa Calm   1.6 km/h 95% 0 mm 67 W/m2
10:04 6.1 °C 5.4 °C 1029.7 hPa Calm   3.2 km/h 95% 0 mm 63 W/m2
10:09 6.3 °C 5.7 °C 1029.7 hPa Calm     96% 0 mm 69 W/m2
10:14 6.4 °C 5.8 °C 1029.7 hPa Calm   1.6 km/h 95.6% 0 mm 83 W/m2
10:19 6.8 °C 6.2 °C 1029.7 hPa Calm     96% 0 mm 90 W/m2
10:24 6.8 °C 6.2 °C 1029.7 hPa SW 2.7 km/h 4.8 km/h 96% 0 mm 105 W/m2
10:29 6.9 °C 6.3 °C 1029.7 hPa WNW 3.2 km/h 4.8 km/h 96% 0 mm 88 W/m2
10:34 7.1 °C 6.5 °C 1029.7 hPa NW 2.9 km/h 8 km/h 96% 0 mm 86 W/m2
10:39 7.2 °C 6.6 °C 1029.7 hPa West 4 km/h 8 km/h 96% 0 mm 109 W/m2
10:44 7.3 °C 6.7 °C 1029.7 hPa West 3.4 km/h 8 km/h 96% 0 mm 132 W/m2
10:49 7.4 °C 6.8 °C 1029.7 hPa West 4 km/h 8 km/h 96% 0 mm 139 W/m2
10:54 7.4 °C 6.8 °C 1029.7 hPa West 2.7 km/h 6.4 km/h 95.6% 0 mm 123 W/m2
10:59 7.3 °C 6.7 °C 1029.7 hPa WNW 6.1 km/h 9.7 km/h 95% 0 mm 107 W/m2
11:04 7.4 °C 6.7 °C 1029.7 hPa West 3.2 km/h 4.8 km/h 95% 0 mm 114 W/m2
11:09 7.5 °C 6.8 °C 1029.3 hPa West 4.8 km/h 8 km/h 95% 0 mm 156 W/m2
11:14 7.7 °C 6.9 °C 1029.3 hPa West 3.2 km/h 8 km/h 95% 0 mm 135 W/m2
11:19 7.8 °C 6.9 °C 1029.3 hPa SW 1.9 km/h 4.8 km/h 95% 0 mm 104 W/m2
11:24 7.9 °C 7.1 °C 1029.3 hPa SSW 2.4 km/h 6.4 km/h 95% 0 mm 167 W/m2
11:29 8 °C 7.2 °C 1029.3 hPa SW 1.3 km/h 6.4 km/h 94.4% 0 mm 128 W/m2
11:34 8.1 °C 7.2 °C 1029.3 hPa SSW 6.1 km/h 11.3 km/h 94% 0 mm 221 W/m2
11:39 8.2 °C 7.3 °C 1029.3 hPa SW 3.9 km/h 9.7 km/h 94% 0 mm 225 W/m2
11:44 8.3 °C 7.2 °C 1029.3 hPa WSW 4 km/h 9.7 km/h 93% 0 mm 236 W/m2
11:49 8.4 °C 7.3 °C 1029.3 hPa WSW 4.7 km/h 9.7 km/h 93% 0 mm 227 W/m2
11:54 8.5 °C 7.3 °C 1029 hPa West 6.1 km/h 11.3 km/h 92.6% 0 mm 211 W/m2
11:59 8.7 °C 7.4 °C 1029 hPa WSW 4.2 km/h 9.7 km/h 92% 0 mm 209 W/m2
12:04 8.7 °C 7.5 °C 1029 hPa West 3.4 km/h 6.4 km/h 92% 0 mm 207 W/m2
12:09 8.9 °C 7.6 °C 1029 hPa West 2.3 km/h 4.8 km/h 91.4% 0 mm 211 W/m2
12:14 9.2 °C 7.8 °C 1028.7 hPa SW 2.4 km/h 6.4 km/h 91% 0 mm 202 W/m2
12:19 9.4 °C 7.9 °C 1028.7 hPa SW 1.9 km/h 6.4 km/h 90.4% 0 mm 193 W/m2
12:24 9.5 °C 7.8 °C 1028.3 hPa SSW 3.2 km/h 6.4 km/h 89.2% 0 mm 186 W/m2
12:29 9.7 °C 8 °C 1028.3 hPa SW 2.1 km/h 9.7 km/h 89% 0 mm 188 W/m2
12:34 9.7 °C 7.9 °C 1028.3 hPa SSW 5.3 km/h 9.7 km/h 88.4% 0 mm 190 W/m2
12:39 9.7 °C 7.8 °C 1028.3 hPa SSW 4 km/h 9.7 km/h 88% 0 mm 179 W/m2
12:44 9.9 °C 8 °C 1028.3 hPa SSW 4 km/h 8 km/h 88% 0 mm 179 W/m2
12:49 9.9 °C 7.9 °C 1028.3 hPa SW 3.5 km/h 6.4 km/h 87.2% 0 mm 178 W/m2
12:54 10.3 °C 8.2 °C 1028.3 hPa WSW 4.8 km/h 8 km/h 87% 0 mm 174 W/m2
12:59 10.1 °C 7.9 °C 1028.3 hPa WSW 4.7 km/h 8 km/h 86.2% 0 mm 174 W/m2
13:04 10.1 °C 8 °C 1028 hPa WSW 4.7 km/h 8 km/h 87% 0 mm 167 W/m2
13:09 10.2 °C 8.2 °C 1028 hPa West 4.8 km/h 8 km/h 86.8% 0 mm 165 W/m2
13:14 10.3 °C 8.1 °C 1028 hPa WSW 4 km/h 9.7 km/h 86% 0 mm 165 W/m2
13:19 10.2 °C 7.9 °C 1028 hPa WSW 8 km/h 11.3 km/h 86% 0 mm 162 W/m2
13:24 10 °C 7.8 °C 1028 hPa West 4.7 km/h 11.3 km/h 86% 0 mm 156 W/m2
13:29 9.9 °C 7.7 °C 1028 hPa West 5.5 km/h 9.7 km/h 86% 0 mm 155 W/m2
13:34 9.9 °C 7.7 °C 1028 hPa WSW 5.1 km/h 9.7 km/h 86% 0 mm 151 W/m2
13:39 10 °C 7.9 °C 1028 hPa West 4.7 km/h 9.7 km/h 87% 0 mm 146 W/m2
13:44 10.2 °C 8.1 °C 1027.7 hPa WSW 6 km/h 9.7 km/h 87% 0 mm 142 W/m2
13:49 10.3 °C 8.1 °C 1028 hPa West 6.9 km/h 11.3 km/h 86.6% 0 mm 137 W/m2
13:54 10.2 °C 8.1 °C 1028 hPa West 5.1 km/h 11.3 km/h 86% 0 mm 134 W/m2
13:59 10.3 °C 8.1 °C 1027.7 hPa WSW 5.3 km/h 8 km/h 86% 0 mm 130 W/m2
14:04 10.3 °C 8.1 °C 1027.7 hPa West 3.9 km/h 8 km/h 86% 0 mm 127 W/m2
14:09 10.3 °C 8.2 °C 1027.7 hPa SW 4.8 km/h 8 km/h 86% 0 mm 118 W/m2
14:14 10.3 °C 8.1 °C 1027.7 hPa SW 3.5 km/h 9.7 km/h 86% 0 mm 113 W/m2
14:19 10.3 °C 8.1 °C 1027.7 hPa WSW 4.7 km/h 8 km/h 85.6% 0 mm 105 W/m2
14:24 10.3 °C 8.1 °C 1027.7 hPa WSW 2.7 km/h 6.4 km/h 85.8% 0 mm 97 W/m2
14:29 10.4 °C 8.2 °C 1027.7 hPa West 2.7 km/h 8 km/h 86% 0 mm 91 W/m2
14:34 10.4 °C 8.3 °C 1027.7 hPa West 3.2 km/h 6.4 km/h 86% 0 mm 84 W/m2
14:39 10.5 °C 8.3 °C 1027.7 hPa West 4.5 km/h 6.4 km/h 86% 0 mm 81 W/m2
14:44 10.4 °C 8.2 °C 1027.7 hPa West 3.2 km/h 6.4 km/h 86% 0 mm 74 W/m2
14:49 10.3 °C 8.1 °C 1028 hPa WNW 5.3 km/h 8 km/h 85.8% 0 mm 67 W/m2
14:54 10.2 °C 7.9 °C 1028 hPa West 3.9 km/h 6.4 km/h 86% 0 mm 58 W/m2
14:59 10.1 °C 7.9 °C 1027.7 hPa West 3.2 km/h 6.4 km/h 86.6% 0 mm 51 W/m2
15:04 10.1 °C 8 °C 1027.7 hPa WNW 4.2 km/h 6.4 km/h 87% 0 mm 46 W/m2
15:09 10.1 °C 7.9 °C 1027.7 hPa WNW 4 km/h 6.4 km/h 87% 0 mm 39 W/m2
15:14 10.1 °C 8 °C 1027.7 hPa West 4.2 km/h 8 km/h 87% 0 mm 35 W/m2
15:19 10.2 °C 8.1 °C 1027.7 hPa West 3.9 km/h 8 km/h 87% 0 mm 28 W/m2
15:24 10.1 °C 8 °C 1027.7 hPa West 3.1 km/h 6.4 km/h 87% 0 mm 25 W/m2
15:29 10.1 °C 8 °C 1027.7 hPa West 2.1 km/h 4.8 km/h 87% 0 mm 21 W/m2
15:34 10 °C 7.9 °C 1027.7 hPa West 3.7 km/h 6.4 km/h 87% 0 mm 19 W/m2
15:38 9.9 °C 7.8 °C 1027.7 hPa West 3.2 km/h 6.4 km/h 87% 0 mm 18 W/m2
15:44 9.8 °C 7.7 °C 1027.7 hPa West 5 km/h 8 km/h 87% 0 mm 16 W/m2
15:49 9.6 °C 7.4 °C 1027.7 hPa West 3.5 km/h 6.4 km/h 87% 0 mm 14 W/m2
15:54 9.4 °C 7.4 °C 1027.7 hPa WNW 2.4 km/h 6.4 km/h 87.8% 0 mm 12 W/m2
15:59 9.2 °C 7.3 °C 1027.7 hPa WNW 1.4 km/h 4.8 km/h 88% 0 mm 11 W/m2
16:04 9.2 °C 7.3 °C 1027.7 hPa WNW 2.4 km/h 6.4 km/h 88% 0 mm 7 W/m2
16:09 9 °C 7.1 °C 1028 hPa WNW 3.4 km/h 6.4 km/h 88.2% 0 mm 5 W/m2
16:14 8.8 °C 7.1 °C 1028 hPa NW 4 km/h 6.4 km/h 88.8% 0 mm 5 W/m2
16:19 8.7 °C 7 °C 1028 hPa NNW 3.2 km/h 4.8 km/h 89% 0 mm 0 W/m2
16:24 8.6 °C 6.9 °C 1028 hPa NW 2.1 km/h 4.8 km/h 89% 0 mm 0 W/m2
16:29 8.4 °C 6.9 °C 1028.3 hPa NW 4 km/h 6.4 km/h 89.8% 0 mm 0 W/m2
16:34 8.3 °C 6.8 °C 1028.3 hPa WNW 3.1 km/h 6.4 km/h 90% 0 mm 0 W/m2
16:39 8.3 °C 6.8 °C 1028.3 hPa NW 3.2 km/h 6.4 km/h 90% 0 mm 0 W/m2
16:44 8.2 °C 6.7 °C 1028.3 hPa WNW 3.2 km/h 4.8 km/h 90% 0 mm 0 W/m2
16:49 8.2 °C 6.8 °C 1028.3 hPa WNW 0.6 km/h 3.2 km/h 90.6% 0 mm 0 W/m2
16:54 8.2 °C 6.7 °C 1028.3 hPa WNW 0.6 km/h 4.8 km/h 91% 0 mm 0 W/m2
16:59 7.9 °C 6.5 °C 1028 hPa SSW 2.7 km/h 4.8 km/h 91% 0 mm 0 W/m2
17:04 7.8 °C 6.4 °C 1028 hPa SE 2.7 km/h 4.8 km/h 91% 0 mm 0 W/m2
17:09 7.5 °C 6.1 °C 1028 hPa ESE 2.1 km/h 4.8 km/h 91% 0 mm 0 W/m2
17:14 7.3 °C 5.9 °C 1028.3 hPa ENE 2.1 km/h 4.8 km/h 91% 0 mm 0 W/m2
17:19 7.2 °C 5.8 °C 1028.3 hPa NE 2.3 km/h 4.8 km/h 91% 0 mm 0 W/m2
17:24 7.1 °C 5.7 °C 1028.3 hPa NE 2.3 km/h 3.2 km/h 91% 0 mm 0 W/m2
17:29 7.3 °C 5.9 °C 1028.3 hPa West 4 km/h 6.4 km/h 91.4% 0 mm 0 W/m2
17:34 7.6 °C 6.4 °C 1028.3 hPa WSW 3.5 km/h 9.7 km/h 92% 0 mm 0 W/m2
17:39 7.6 °C 6.4 °C 1028.3 hPa WNW 3.2 km/h 9.7 km/h 92% 0 mm 0 W/m2
17:44 7.3 °C 6.2 °C 1028.3 hPa NW 3.1 km/h 8 km/h 92% 0 mm 0 W/m2
17:49 7.2 °C 6 °C 1028.3 hPa NW 4.5 km/h 8 km/h 92% 0 mm 0 W/m2
17:54 7.1 °C 5.9 °C 1028.3 hPa NNW 5 km/h 8 km/h 92% 0 mm 0 W/m2
17:59 7 °C 5.8 °C 1028.3 hPa NW 6.6 km/h 8 km/h 92% 0 mm 0 W/m2
18:04 7.1 °C 5.9 °C 1028.3 hPa NW 3.5 km/h 8 km/h 92.8% 0 mm 0 W/m2
18:09 7 °C 5.9 °C 1028.3 hPa NW 3.9 km/h 6.4 km/h 93% 0 mm 0 W/m2
18:14 6.9 °C 5.8 °C 1028.3 hPa NNW 3.2 km/h 6.4 km/h 93% 0 mm 0 W/m2
18:19 6.9 °C 5.8 °C 1028.3 hPa NNW 3.4 km/h 6.4 km/h 93% 0 mm 0 W/m2
18:24 6.9 °C 5.8 °C 1028.3 hPa North 2.6 km/h 6.4 km/h 93% 0 mm 0 W/m2
18:29 6.9 °C 5.8 °C 1028.7 hPa NNW 3.2 km/h 6.4 km/h 93% 0 mm 0 W/m2
18:34 6.8 °C 5.7 °C 1028.7 hPa NW 4.2 km/h 8 km/h 93% 0 mm 0 W/m2
18:39 6.8 °C 5.7 °C 1028.7 hPa NW 3.2 km/h 6.4 km/h 93% 0 mm 0 W/m2
18:44 6.8 °C 5.7 °C 1028.7 hPa NW 4.5 km/h 6.4 km/h 93% 0 mm 0 W/m2
18:49 6.8 °C 5.7 °C 1029 hPa NW 2.7 km/h 6.4 km/h 93% 0 mm 0 W/m2
18:54 7 °C 6.1 °C 1029 hPa NW 0.3 km/h 4.8 km/h 93.8% 0 mm 0 W/m2
18:59 7.1 °C 6.2 °C 1029 hPa NW 2.3 km/h 4.8 km/h 94% 0 mm 0 W/m2
19:04 7.1 °C 6.2 °C 1029 hPa NW 2.1 km/h 4.8 km/h 94% 0 mm 0 W/m2
19:09 7.1 °C 6.2 °C 1029 hPa NNW 1.6 km/h 4.8 km/h 94% 0 mm 0 W/m2
19:14 7.2 °C 6.3 °C 1029 hPa North 3.1 km/h 4.8 km/h 94% 0 mm 0 W/m2
19:19 7.2 °C 6.3 °C 1029 hPa NW 2.9 km/h 4.8 km/h 94% 0 mm 0 W/m2
19:24 7.3 °C 6.4 °C 1029 hPa WNW 2.1 km/h 3.2 km/h 94% 0 mm 0 W/m2
19:29 7.3 °C 6.4 °C 1029 hPa WNW 2.4 km/h 4.8 km/h 94% 0 mm 0 W/m2
19:34 7.3 °C 6.4 °C 1029.3 hPa West 2.9 km/h 4.8 km/h 94% 0 mm 0 W/m2
19:39 7.3 °C 6.4 °C 1029.3 hPa WNW 3.1 km/h 4.8 km/h 94% 0 mm 0 W/m2
19:44 7.3 °C 6.4 °C 1029.3 hPa NW 4.5 km/h 8 km/h 94% 0 mm 0 W/m2
19:49 7.4 °C 6.5 °C 1029.3 hPa NW 3.2 km/h 6.4 km/h 94% 0 mm 0 W/m2
19:54 7.4 °C 6.5 °C 1029.3 hPa NW 3.7 km/h 6.4 km/h 94% 0 mm 0 W/m2
19:59 7.4 °C 6.5 °C 1029.3 hPa NW 3.5 km/h 6.4 km/h 94% 0 mm 0 W/m2
20:04 7.5 °C 6.6 °C 1029.7 hPa NNW 2.7 km/h 6.4 km/h 94% 0 mm 0 W/m2
20:09 7.5 °C 6.6 °C 1029.7 hPa NW 3.4 km/h 6.4 km/h 94% 0 mm 0 W/m2
20:14 7.6 °C 6.7 °C 1029.7 hPa NNW 4.7 km/h 8 km/h 94% 0 mm 0 W/m2
20:19 7.6 °C 6.7 °C 1029.3 hPa NW 3.5 km/h 6.4 km/h 94% 0 mm 0 W/m2
20:24 7.6 °C 6.7 °C 1029.3 hPa NNW 3.5 km/h 8 km/h 94% 0 mm 0 W/m2
20:29 7.6 °C 6.7 °C 1029.3 hPa NW 1.8 km/h 4.8 km/h 94% 0 mm 0 W/m2
20:34 7.6 °C 6.7 °C 1029.3 hPa WNW 1.4 km/h 4.8 km/h 94% 0 mm 0 W/m2
20:39 7.6 °C 6.7 °C 1029.7 hPa WNW 2.4 km/h 3.2 km/h 94% 0 mm 0 W/m2
20:44 7.6 °C 6.7 °C 1029.7 hPa WNW 2.7 km/h 4.8 km/h 94% 0 mm 0 W/m2
20:49 7.6 °C 6.7 °C 1029.7 hPa WNW 2.7 km/h 4.8 km/h 94% 0 mm 0 W/m2
20:54 7.6 °C 6.7 °C 1029.7 hPa WNW 1.9 km/h 4.8 km/h 94% 0 mm 0 W/m2
20:59 7.6 °C 6.7 °C 1029.7 hPa WNW 2.1 km/h 3.2 km/h 94% 0 mm 0 W/m2
21:04 7.6 °C 6.7 °C 1029.7 hPa WNW 1.4 km/h 3.2 km/h 94% 0 mm 0 W/m2
21:09 7.4 °C 6.5 °C 1030 hPa WNW 3.7 km/h 4.8 km/h 94% 0 mm 0 W/m2
21:14 7.3 °C 6.3 °C 1030 hPa WNW 2.9 km/h 4.8 km/h 94% 0 mm 0 W/m2
21:19 7.2 °C 6.3 °C 1030 hPa WNW 2.1 km/h 3.2 km/h 94% 0 mm 0 W/m2
21:24 7.1 °C 6.2 °C 1030 hPa WNW 2.1 km/h 4.8 km/h 94% 0 mm 0 W/m2
21:29 6.8 °C 5.9 °C 1030 hPa WNW 2.1 km/h 3.2 km/h 94% 0 mm 0 W/m2
21:34 6.7 °C 5.8 °C 1030 hPa WNW 0.6 km/h 3.2 km/h 94% 0 mm 0 W/m2
21:39 6.7 °C 5.8 °C 1030 hPa WNW 0.8 km/h 1.6 km/h 94% 0 mm 0 W/m2
21:44 6.5 °C 5.6 °C 1030 hPa WNW 0.3 km/h 1.6 km/h 94% 0 mm 0 W/m2
21:49 6.3 °C 5.3 °C 1030 hPa WNW 1 km/h 3.2 km/h 94% 0 mm 0 W/m2
21:54 6.2 °C 5.3 °C 1030 hPa WNW 2.9 km/h 3.2 km/h 94% 0 mm 0 W/m2
21:59 6.2 °C 5.3 °C 1030 hPa WNW 0.3 km/h 3.2 km/h 94% 0 mm 0 W/m2
22:04 6.1 °C 5.2 °C 1029.7 hPa WNW 0.8 km/h 3.2 km/h 94% 0 mm 0 W/m2
22:09 6.1 °C 5.2 °C 1029.3 hPa WNW 1.4 km/h 3.2 km/h 94% 0 mm 0 W/m2
22:14 6 °C 5.1 °C 1029.7 hPa WNW 1.4 km/h 3.2 km/h 94% 0 mm 0 W/m2
22:19 5.9 °C 5 °C 1029.7 hPa WNW 0.3 km/h 3.2 km/h 94% 0 mm 0 W/m2
22:24 5.8 °C 4.9 °C 1029.7 hPa WNW 1.9 km/h 4.8 km/h 94% 0 mm 0 W/m2
22:29 5.8 °C 4.9 °C 1029.7 hPa WNW 0.3 km/h 1.6 km/h 94% 0 mm 0 W/m2
22:34 5.7 °C 4.8 °C 1030 hPa WNW 0.6 km/h 1.6 km/h 94% 0 mm 0 W/m2
22:39 5.5 °C 4.6 °C 1030 hPa WNW 2.3 km/h 3.2 km/h 94% 0 mm 0 W/m2
22:44 5.4 °C 4.5 °C 1030 hPa WNW 2.7 km/h 4.8 km/h 94% 0 mm 0 W/m2
22:49 5.4 °C 4.5 °C 1030 hPa NW 2.1 km/h 4.8 km/h 94% 0 mm 0 W/m2
22:54 5.4 °C 4.5 °C 1030 hPa NNW 0.6 km/h 3.2 km/h 94% 0 mm 0 W/m2
22:59 5.4 °C 4.6 °C 1030 hPa Calm   4.8 km/h 94% 0 mm 0 W/m2
23:04 5.5 °C 4.6 °C 1030 hPa Calm     94% 0 mm 0 W/m2
23:09 5.5 °C 4.6 °C 1030 hPa NNW 0.6 km/h 1.6 km/h 94% 0 mm 0 W/m2
23:14 5.4 °C 4.6 °C 1030 hPa NNW 1.6 km/h 3.2 km/h 94% 0 mm 0 W/m2
23:19 5.4 °C 4.5 °C 1030 hPa NNW 1.1 km/h 3.2 km/h 94% 0 mm 0 W/m2
23:24 5.2 °C 4.3 °C 1030 hPa NNW 1.8 km/h 4.8 km/h 94% 0 mm 0 W/m2
23:29 5.3 °C 4.4 °C 1030 hPa NNW 0.6 km/h 3.2 km/h 94% 0 mm 0 W/m2
23:34 5.3 °C 4.4 °C 1030 hPa Calm   4.8 km/h 94% 0 mm 0 W/m2
23:39 5.2 °C 4.3 °C 1029.7 hPa NNW 0.6 km/h 1.6 km/h 94% 0 mm 0 W/m2
23:43 5.2 °C 4.3 °C 1029.7 hPa NNW 0.8 km/h 3.2 km/h 94% 0 mm 0 W/m2
23:49 5.1 °C 4.2 °C 1029.7 hPa Calm   1.6 km/h 94% 0 mm 0 W/m2
23:54 5 °C 4.1 °C 1029.7 hPa Calm     94% 0 mm 0 W/m2
23:59 4.9 °C 4 °C 1029.7 hPa NNW 1.4 km/h 3.2 km/h 94% 0 mm 0 W/m2
Bath Spa Weather
Compliments of Weather Underground - 2 mb